sensor_id;sensor_type;location;lat;lon;timestamp;temperature;humidity
336;DHT22;156;48.738;9.228;2023-06-10T00:02:14;18.60;1.00
336;DHT22;156;48.738;9.228;2023-06-10T00:04:51;18.80;1.00
336;DHT22;156;48.738;9.228;2023-06-10T00:07:32;18.40;1.00
336;DHT22;156;48.738;9.228;2023-06-10T00:10:12;18.40;1.00
336;DHT22;156;48.738;9.228;2023-06-10T00:12:41;18.70;1.00
336;DHT22;156;48.738;9.228;2023-06-10T00:15:12;18.50;1.00
336;DHT22;156;48.738;9.228;2023-06-10T00:17:48;18.40;1.00
336;DHT22;156;48.738;9.228;2023-06-10T00:20:20;18.40;1.00
336;DHT22;156;48.738;9.228;2023-06-10T00:23:05;18.30;1.00
336;DHT22;156;48.738;9.228;2023-06-10T00:25:45;16.30;1.00
336;DHT22;156;48.738;9.228;2023-06-10T00:28:30;17.30;1.00
336;DHT22;156;48.738;9.228;2023-06-10T00:31:13;19.30;1.00
336;DHT22;156;48.738;9.228;2023-06-10T00:33:40;18.00;1.00
336;DHT22;156;48.738;9.228;2023-06-10T00:36:10;18.10;1.00
336;DHT22;156;48.738;9.228;2023-06-10T00:38:56;18.20;1.00
336;DHT22;156;48.738;9.228;2023-06-10T00:41:46;17.90;1.00
336;DHT22;156;48.738;9.228;2023-06-10T00:44:40;17.00;1.00
336;DHT22;156;48.738;9.228;2023-06-10T00:47:16;17.90;1.00
336;DHT22;156;48.738;9.228;2023-06-10T00:49:58;17.90;1.00
336;DHT22;156;48.738;9.228;2023-06-10T00:52:29;17.40;1.00
336;DHT22;156;48.738;9.228;2023-06-10T00:55:01;17.90;1.00
336;DHT22;156;48.738;9.228;2023-06-10T00:57:47;17.90;1.00
336;DHT22;156;48.738;9.228;2023-06-10T01:00:31;18.20;1.00
336;DHT22;156;48.738;9.228;2023-06-10T01:03:15;17.90;1.00
336;DHT22;156;48.738;9.228;2023-06-10T01:06:04;17.10;1.00
336;DHT22;156;48.738;9.228;2023-06-10T01:08:49;17.90;1.00
336;DHT22;156;48.738;9.228;2023-06-10T01:11:40;19.30;1.00
336;DHT22;156;48.738;9.228;2023-06-10T01:14:24;17.10;1.00
336;DHT22;156;48.738;9.228;2023-06-10T01:16:54;18.20;1.00
336;DHT22;156;48.738;9.228;2023-06-10T01:19:28;17.90;1.00
336;DHT22;156;48.738;9.228;2023-06-10T01:21:58;17.80;1.00
336;DHT22;156;48.738;9.228;2023-06-10T01:24:26;17.70;1.00
336;DHT22;156;48.738;9.228;2023-06-10T01:26:59;17.70;1.00
336;DHT22;156;48.738;9.228;2023-06-10T01:29:32;17.70;1.00
336;DHT22;156;48.738;9.228;2023-06-10T01:32:07;17.70;1.00
336;DHT22;156;48.738;9.228;2023-06-10T01:34:39;17.60;1.00
336;DHT22;156;48.738;9.228;2023-06-10T01:37:20;17.60;1.00
336;DHT22;156;48.738;9.228;2023-06-10T01:40:00;17.50;1.00
336;DHT22;156;48.738;9.228;2023-06-10T01:42:42;16.30;1.00
336;DHT22;156;48.738;9.228;2023-06-10T01:45:23;17.50;1.00
336;DHT22;156;48.738;9.228;2023-06-10T01:47:54;17.50;1.00
336;DHT22;156;48.738;9.228;2023-06-10T01:50:21;17.60;1.00
336;DHT22;156;48.738;9.228;2023-06-10T01:52:52;17.50;1.00
336;DHT22;156;48.738;9.228;2023-06-10T01:55:19;16.80;1.00
336;DHT22;156;48.738;9.228;2023-06-10T01:57:49;17.70;1.00
336;DHT22;156;48.738;9.228;2023-06-10T02:00:34;17.60;1.00
336;DHT22;156;48.738;9.228;2023-06-10T02:03:18;17.40;1.00
336;DHT22;156;48.738;9.228;2023-06-10T02:05:46;17.60;1.00
336;DHT22;156;48.738;9.228;2023-06-10T02:08:17;17.60;1.00
336;DHT22;156;48.738;9.228;2023-06-10T02:10:44;17.50;1.00
336;DHT22;156;48.738;9.228;2023-06-10T02:13:11;17.40;1.00
336;DHT22;156;48.738;9.228;2023-06-10T02:15:37;17.40;1.00
336;DHT22;156;48.738;9.228;2023-06-10T02:18:05;17.30;1.00
336;DHT22;156;48.738;9.228;2023-06-10T02:20:33;17.30;1.00
336;DHT22;156;48.738;9.228;2023-06-10T02:23:00;17.30;1.00
336;DHT22;156;48.738;9.228;2023-06-10T02:25:28;17.30;1.00
336;DHT22;156;48.738;9.228;2023-06-10T02:27:55;17.20;1.00
336;DHT22;156;48.738;9.228;2023-06-10T02:30:22;17.20;1.00
336;DHT22;156;48.738;9.228;2023-06-10T02:32:49;17.10;1.00
336;DHT22;156;48.738;9.228;2023-06-10T02:35:18;17.10;1.00
336;DHT22;156;48.738;9.228;2023-06-10T02:37:45;17.20;1.00
336;DHT22;156;48.738;9.228;2023-06-10T02:40:12;17.20;1.00
336;DHT22;156;48.738;9.228;2023-06-10T02:42:40;17.20;1.00
336;DHT22;156;48.738;9.228;2023-06-10T02:45:08;17.00;1.00
336;DHT22;156;48.738;9.228;2023-06-10T02:47:37;17.10;1.00
336;DHT22;156;48.738;9.228;2023-06-10T02:50:04;17.00;1.00
336;DHT22;156;48.738;9.228;2023-06-10T02:52:31;16.90;1.00
336;DHT22;156;48.738;9.228;2023-06-10T02:54:58;16.90;1.00
336;DHT22;156;48.738;9.228;2023-06-10T02:57:25;17.00;1.00
336;DHT22;156;48.738;9.228;2023-06-10T02:59:53;16.90;1.00
336;DHT22;156;48.738;9.228;2023-06-10T03:02:20;16.90;1.00
336;DHT22;156;48.738;9.228;2023-06-10T03:04:47;16.80;1.00
336;DHT22;156;48.738;9.228;2023-06-10T03:07:16;16.80;1.00
336;DHT22;156;48.738;9.228;2023-06-10T03:09:43;16.70;1.00
336;DHT22;156;48.738;9.228;2023-06-10T03:12:10;16.70;1.00
336;DHT22;156;48.738;9.228;2023-06-10T03:14:37;16.70;1.00
336;DHT22;156;48.738;9.228;2023-06-10T03:17:06;16.70;1.00
336;DHT22;156;48.738;9.228;2023-06-10T03:19:34;16.60;1.00
336;DHT22;156;48.738;9.228;2023-06-10T03:22:10;16.60;1.00
336;DHT22;156;48.738;9.228;2023-06-10T03:24:37;16.60;1.00
336;DHT22;156;48.738;9.228;2023-06-10T03:27:06;16.50;1.00
336;DHT22;156;48.738;9.228;2023-06-10T03:29:33;16.50;1.00
336;DHT22;156;48.738;9.228;2023-06-10T03:32:00;16.50;1.00
336;DHT22;156;48.738;9.228;2023-06-10T03:34:29;16.50;1.00
336;DHT22;156;48.738;9.228;2023-06-10T03:36:56;16.40;1.00
336;DHT22;156;48.738;9.228;2023-06-10T03:39:23;16.40;1.00
336;DHT22;156;48.738;9.228;2023-06-10T03:41:51;16.40;1.00
336;DHT22;156;48.738;9.228;2023-06-10T03:44:18;16.40;1.00
336;DHT22;156;48.738;9.228;2023-06-10T03:46:44;16.30;1.00
336;DHT22;156;48.738;9.228;2023-06-10T03:49:13;16.30;1.00
336;DHT22;156;48.738;9.228;2023-06-10T03:51:42;16.30;1.00
336;DHT22;156;48.738;9.228;2023-06-10T03:54:08;16.40;1.00
336;DHT22;156;48.738;9.228;2023-06-10T03:56:35;16.30;1.00
336;DHT22;156;48.738;9.228;2023-06-10T03:59:02;16.30;1.00
336;DHT22;156;48.738;9.228;2023-06-10T04:01:30;16.30;1.00
336;DHT22;156;48.738;9.228;2023-06-10T04:03:59;16.40;1.00
336;DHT22;156;48.738;9.228;2023-06-10T04:06:27;16.40;1.00
336;DHT22;156;48.738;9.228;2023-06-10T04:08:56;16.30;1.00
336;DHT22;156;48.738;9.228;2023-06-10T04:11:23;16.30;1.00
336;DHT22;156;48.738;9.228;2023-06-10T04:13:50;16.30;1.00
336;DHT22;156;48.738;9.228;2023-06-10T04:16:17;16.40;1.00
336;DHT22;156;48.738;9.228;2023-06-10T04:18:44;16.40;1.00
336;DHT22;156;48.738;9.228;2023-06-10T04:21:11;16.50;1.00
336;DHT22;156;48.738;9.228;2023-06-10T04:23:38;16.50;1.00
336;DHT22;156;48.738;9.228;2023-06-10T04:26:06;16.50;1.00
336;DHT22;156;48.738;9.228;2023-06-10T04:28:34;16.60;1.00
336;DHT22;156;48.738;9.228;2023-06-10T04:31:01;16.60;1.00
336;DHT22;156;48.738;9.228;2023-06-10T04:33:29;16.60;1.00
336;DHT22;156;48.738;9.228;2023-06-10T04:35:57;16.70;1.00
336;DHT22;156;48.738;9.228;2023-06-10T04:38:24;16.70;1.00
336;DHT22;156;48.738;9.228;2023-06-10T04:40:52;16.70;1.00
336;DHT22;156;48.738;9.228;2023-06-10T04:43:20;16.80;1.00
336;DHT22;156;48.738;9.228;2023-06-10T04:45:47;16.80;1.00
336;DHT22;156;48.738;9.228;2023-06-10T04:48:14;17.00;1.00
336;DHT22;156;48.738;9.228;2023-06-10T04:50:41;17.00;1.00
336;DHT22;156;48.738;9.228;2023-06-10T04:53:10;17.10;1.00
336;DHT22;156;48.738;9.228;2023-06-10T04:55:39;17.20;1.00
336;DHT22;156;48.738;9.228;2023-06-10T04:58:09;17.20;1.00
336;DHT22;156;48.738;9.228;2023-06-10T05:00:37;17.30;1.00
336;DHT22;156;48.738;9.228;2023-06-10T05:03:04;17.30;1.00
336;DHT22;156;48.738;9.228;2023-06-10T05:05:39;17.40;1.00
336;DHT22;156;48.738;9.228;2023-06-10T05:08:09;17.50;1.00
336;DHT22;156;48.738;9.228;2023-06-10T05:10:36;17.60;1.00
336;DHT22;156;48.738;9.228;2023-06-10T05:13:03;17.60;1.00
336;DHT22;156;48.738;9.228;2023-06-10T05:15:30;17.70;1.00
336;DHT22;156;48.738;9.228;2023-06-10T05:17:58;17.80;1.00
336;DHT22;156;48.738;9.228;2023-06-10T05:20:25;17.90;1.00
336;DHT22;156;48.738;9.228;2023-06-10T05:22:54;18.10;1.00
336;DHT22;156;48.738;9.228;2023-06-10T05:25:21;18.20;1.00
336;DHT22;156;48.738;9.228;2023-06-10T05:27:47;18.40;1.00
336;DHT22;156;48.738;9.228;2023-06-10T05:30:14;18.50;1.00
336;DHT22;156;48.738;9.228;2023-06-10T05:32:44;18.50;1.00
336;DHT22;156;48.738;9.228;2023-06-10T05:35:12;18.70;1.00
336;DHT22;156;48.738;9.228;2023-06-10T05:37:39;18.80;1.00
336;DHT22;156;48.738;9.228;2023-06-10T05:40:07;18.80;1.00
336;DHT22;156;48.738;9.228;2023-06-10T05:42:34;18.90;1.00
336;DHT22;156;48.738;9.228;2023-06-10T05:45:03;18.80;1.00
336;DHT22;156;48.738;9.228;2023-06-10T05:47:31;18.90;1.00
336;DHT22;156;48.738;9.228;2023-06-10T05:50:00;18.90;1.00
336;DHT22;156;48.738;9.228;2023-06-10T05:52:32;19.10;1.00
336;DHT22;156;48.738;9.228;2023-06-10T05:55:11;19.10;1.00
336;DHT22;156;48.738;9.228;2023-06-10T05:57:47;18.40;1.00
336;DHT22;156;48.738;9.228;2023-06-10T06:00:15;18.80;1.00
336;DHT22;156;48.738;9.228;2023-06-10T06:02:44;18.90;1.00
336;DHT22;156;48.738;9.228;2023-06-10T06:05:11;18.90;1.00
336;DHT22;156;48.738;9.228;2023-06-10T06:07:40;19.30;1.00
336;DHT22;156;48.738;9.228;2023-06-10T06:10:08;19.20;1.00
336;DHT22;156;48.738;9.228;2023-06-10T06:12:38;19.50;1.00
336;DHT22;156;48.738;9.228;2023-06-10T06:15:09;19.50;1.00
336;DHT22;156;48.738;9.228;2023-06-10T06:17:36;19.50;1.00
336;DHT22;156;48.738;9.228;2023-06-10T06:20:04;19.60;1.00
336;DHT22;156;48.738;9.228;2023-06-10T06:22:32;19.70;1.00
336;DHT22;156;48.738;9.228;2023-06-10T06:25:00;19.90;1.00
336;DHT22;156;48.738;9.228;2023-06-10T06:27:28;19.80;1.00
336;DHT22;156;48.738;9.228;2023-06-10T06:29:55;19.80;1.00
336;DHT22;156;48.738;9.228;2023-06-10T06:32:22;19.90;1.00
336;DHT22;156;48.738;9.228;2023-06-10T06:34:52;20.00;1.00
336;DHT22;156;48.738;9.228;2023-06-10T06:37:23;20.10;1.00
336;DHT22;156;48.738;9.228;2023-06-10T06:39:54;20.00;1.00
336;DHT22;156;48.738;9.228;2023-06-10T06:42:28;20.00;1.00
336;DHT22;156;48.738;9.228;2023-06-10T06:44:54;20.00;1.00
336;DHT22;156;48.738;9.228;2023-06-10T06:47:21;20.10;1.00
336;DHT22;156;48.738;9.228;2023-06-10T06:49:49;20.30;1.00
336;DHT22;156;48.738;9.228;2023-06-10T06:52:21;20.50;1.00
336;DHT22;156;48.738;9.228;2023-06-10T06:54:48;20.40;1.00
336;DHT22;156;48.738;9.228;2023-06-10T06:57:15;20.50;1.00
336;DHT22;156;48.738;9.228;2023-06-10T06:59:43;20.00;1.00
336;DHT22;156;48.738;9.228;2023-06-10T07:02:10;20.60;1.00
336;DHT22;156;48.738;9.228;2023-06-10T07:04:37;20.50;1.00
336;DHT22;156;48.738;9.228;2023-06-10T07:07:09;20.50;1.00
336;DHT22;156;48.738;9.228;2023-06-10T07:09:38;20.60;1.00
336;DHT22;156;48.738;9.228;2023-06-10T07:12:09;20.80;1.00
336;DHT22;156;48.738;9.228;2023-06-10T07:14:37;20.70;1.00
336;DHT22;156;48.738;9.228;2023-06-10T07:17:10;20.90;1.00
336;DHT22;156;48.738;9.228;2023-06-10T07:19:37;20.70;1.00
336;DHT22;156;48.738;9.228;2023-06-10T07:22:04;20.80;1.00
336;DHT22;156;48.738;9.228;2023-06-10T07:24:32;20.70;1.00
336;DHT22;156;48.738;9.228;2023-06-10T07:27:01;20.90;1.00
336;DHT22;156;48.738;9.228;2023-06-10T07:29:34;21.10;1.00
336;DHT22;156;48.738;9.228;2023-06-10T07:32:02;21.10;1.00
336;DHT22;156;48.738;9.228;2023-06-10T07:34:30;21.30;1.00
336;DHT22;156;48.738;9.228;2023-06-10T07:37:07;21.30;1.00
336;DHT22;156;48.738;9.228;2023-06-10T07:39:48;21.40;1.00
336;DHT22;156;48.738;9.228;2023-06-10T07:42:15;21.50;1.00
336;DHT22;156;48.738;9.228;2023-06-10T07:44:42;21.50;1.00
336;DHT22;156;48.738;9.228;2023-06-10T07:47:09;21.50;1.00
336;DHT22;156;48.738;9.228;2023-06-10T07:49:52;21.60;1.00
336;DHT22;156;48.738;9.228;2023-06-10T07:52:19;21.30;1.00
336;DHT22;156;48.738;9.228;2023-06-10T07:54:46;21.80;1.00
336;DHT22;156;48.738;9.228;2023-06-10T07:57:16;21.50;1.00
336;DHT22;156;48.738;9.228;2023-06-10T07:59:46;21.50;1.00
336;DHT22;156;48.738;9.228;2023-06-10T08:02:15;21.30;1.00
336;DHT22;156;48.738;9.228;2023-06-10T08:04:46;21.40;1.00
336;DHT22;156;48.738;9.228;2023-06-10T08:07:34;21.80;1.00
336;DHT22;156;48.738;9.228;2023-06-10T08:10:05;21.70;1.00
336;DHT22;156;48.738;9.228;2023-06-10T08:12:38;22.30;1.00
336;DHT22;156;48.738;9.228;2023-06-10T08:15:22;22.30;1.00
336;DHT22;156;48.738;9.228;2023-06-10T08:17:55;22.50;1.00
336;DHT22;156;48.738;9.228;2023-06-10T08:20:22;23.00;1.00
336;DHT22;156;48.738;9.228;2023-06-10T08:23:08;22.60;1.00
336;DHT22;156;48.738;9.228;2023-06-10T08:25:44;22.60;1.00
336;DHT22;156;48.738;9.228;2023-06-10T08:28:19;22.70;1.00
336;DHT22;156;48.738;9.228;2023-06-10T08:30:46;23.00;1.00
336;DHT22;156;48.738;9.228;2023-06-10T08:33:16;22.70;1.00
336;DHT22;156;48.738;9.228;2023-06-10T08:35:47;22.30;1.00
336;DHT22;156;48.738;9.228;2023-06-10T08:38:22;22.00;1.00
336;DHT22;156;48.738;9.228;2023-06-10T08:40:52;23.10;1.00
336;DHT22;156;48.738;9.228;2023-06-10T08:43:37;22.20;1.00
336;DHT22;156;48.738;9.228;2023-06-10T08:46:12;22.50;1.00
336;DHT22;156;48.738;9.228;2023-06-10T08:48:47;22.60;1.00
336;DHT22;156;48.738;9.228;2023-06-10T08:51:18;22.80;1.00
336;DHT22;156;48.738;9.228;2023-06-10T08:54:11;22.70;1.00
336;DHT22;156;48.738;9.228;2023-06-10T08:56:49;22.50;1.00
336;DHT22;156;48.738;9.228;2023-06-10T08:59:37;22.50;1.00
336;DHT22;156;48.738;9.228;2023-06-10T09:02:24;22.60;1.00
336;DHT22;156;48.738;9.228;2023-06-10T09:05:30;22.70;1.00
336;DHT22;156;48.738;9.228;2023-06-10T09:08:02;22.60;1.00
336;DHT22;156;48.738;9.228;2023-06-10T09:11:04;22.70;1.00
336;DHT22;156;48.738;9.228;2023-06-10T09:13:47;23.10;1.00
336;DHT22;156;48.738;9.228;2023-06-10T09:16:50;22.90;1.00
336;DHT22;156;48.738;9.228;2023-06-10T09:23:03;23.40;1.00
336;DHT22;156;48.738;9.228;2023-06-10T09:26:00;23.80;1.00
336;DHT22;156;48.738;9.228;2023-06-10T09:28:47;24.10;1.00
336;DHT22;156;48.738;9.228;2023-06-10T09:31:48;24.40;1.00
336;DHT22;156;48.738;9.228;2023-06-10T09:34:24;24.90;1.00
336;DHT22;156;48.738;9.228;2023-06-10T09:37:02;24.80;1.00
336;DHT22;156;48.738;9.228;2023-06-10T09:39:39;25.40;1.00
336;DHT22;156;48.738;9.228;2023-06-10T09:42:18;24.90;1.00
336;DHT22;156;48.738;9.228;2023-06-10T09:45:05;24.50;1.00
336;DHT22;156;48.738;9.228;2023-06-10T09:47:33;23.60;1.00
336;DHT22;156;48.738;9.228;2023-06-10T09:50:07;24.60;1.00
336;DHT22;156;48.738;9.228;2023-06-10T09:52:46;24.60;1.00
336;DHT22;156;48.738;9.228;2023-06-10T09:55:18;24.60;1.00
336;DHT22;156;48.738;9.228;2023-06-10T09:57:51;24.80;1.00
336;DHT22;156;48.738;9.228;2023-06-10T10:00:32;24.70;1.00
336;DHT22;156;48.738;9.228;2023-06-10T10:03:18;24.50;1.00
336;DHT22;156;48.738;9.228;2023-06-10T10:05:49;25.10;1.00
336;DHT22;156;48.738;9.228;2023-06-10T10:08:17;24.90;1.00
336;DHT22;156;48.738;9.228;2023-06-10T10:10:56;24.80;1.00
336;DHT22;156;48.738;9.228;2023-06-10T10:13:25;24.80;1.00
336;DHT22;156;48.738;9.228;2023-06-10T10:15:55;24.50;1.00
336;DHT22;156;48.738;9.228;2023-06-10T10:18:34;24.60;1.00
336;DHT22;156;48.738;9.228;2023-06-10T10:21:13;24.60;1.00
336;DHT22;156;48.738;9.228;2023-06-10T10:23:58;24.80;1.00
336;DHT22;156;48.738;9.228;2023-06-10T10:26:35;24.90;1.00
336;DHT22;156;48.738;9.228;2023-06-10T10:29:10;24.90;1.00
336;DHT22;156;48.738;9.228;2023-06-10T10:31:42;24.50;1.00
336;DHT22;156;48.738;9.228;2023-06-10T10:34:33;24.90;1.00
336;DHT22;156;48.738;9.228;2023-06-10T10:37:22;24.80;1.00
336;DHT22;156;48.738;9.228;2023-06-10T10:40:04;24.70;1.00
336;DHT22;156;48.738;9.228;2023-06-10T10:42:36;25.00;1.00
336;DHT22;156;48.738;9.228;2023-06-10T10:45:08;25.00;1.00
336;DHT22;156;48.738;9.228;2023-06-10T10:48:29;25.30;1.00
336;DHT22;156;48.738;9.228;2023-06-10T10:51:09;26.00;1.00
336;DHT22;156;48.738;9.228;2023-06-10T10:54:27;26.30;1.00
336;DHT22;156;48.738;9.228;2023-06-10T10:57:17;26.40;1.00
336;DHT22;156;48.738;9.228;2023-06-10T11:02:40;25.90;1.00
336;DHT22;156;48.738;9.228;2023-06-10T11:08:15;26.90;1.00
336;DHT22;156;48.738;9.228;2023-06-10T11:11:25;24.20;1.00
336;DHT22;156;48.738;9.228;2023-06-10T11:14:09;26.20;1.00
336;DHT22;156;48.738;9.228;2023-06-10T11:19:55;26.70;1.00
336;DHT22;156;48.738;9.228;2023-06-10T11:22:59;25.80;1.00
336;DHT22;156;48.738;9.228;2023-06-10T11:25:40;26.80;1.00
336;DHT22;156;48.738;9.228;2023-06-10T11:28:22;26.70;1.00
336;DHT22;156;48.738;9.228;2023-06-10T11:31:21;26.60;1.00
336;DHT22;156;48.738;9.228;2023-06-10T11:34:12;26.70;1.00
336;DHT22;156;48.738;9.228;2023-06-10T11:36:49;27.00;1.00
336;DHT22;156;48.738;9.228;2023-06-10T11:39:24;25.80;1.00
336;DHT22;156;48.738;9.228;2023-06-10T11:42:01;26.10;1.00
336;DHT22;156;48.738;9.228;2023-06-10T11:44:33;25.90;1.00
336;DHT22;156;48.738;9.228;2023-06-10T11:47:17;27.10;1.00
336;DHT22;156;48.738;9.228;2023-06-10T11:50:01;27.10;1.00
336;DHT22;156;48.738;9.228;2023-06-10T11:52:39;27.20;1.00
336;DHT22;156;48.738;9.228;2023-06-10T11:55:25;26.50;1.00
336;DHT22;156;48.738;9.228;2023-06-10T11:58:15;27.20;1.00
336;DHT22;156;48.738;9.228;2023-06-10T12:00:57;26.30;1.00
336;DHT22;156;48.738;9.228;2023-06-10T12:03:36;26.70;1.00
336;DHT22;156;48.738;9.228;2023-06-10T12:06:05;26.30;1.00
336;DHT22;156;48.738;9.228;2023-06-10T12:08:45;26.20;1.00
336;DHT22;156;48.738;9.228;2023-06-10T12:11:15;25.90;1.00
336;DHT22;156;48.738;9.228;2023-06-10T12:13:46;26.00;1.00
336;DHT22;156;48.738;9.228;2023-06-10T12:16:19;26.00;1.00
336;DHT22;156;48.738;9.228;2023-06-10T12:18:48;26.10;1.00
336;DHT22;156;48.738;9.228;2023-06-10T12:21:23;26.30;1.00
336;DHT22;156;48.738;9.228;2023-06-10T12:24:24;26.60;1.00
336;DHT22;156;48.738;9.228;2023-06-10T12:27:26;27.00;1.00
336;DHT22;156;48.738;9.228;2023-06-10T12:30:08;27.30;1.00
336;DHT22;156;48.738;9.228;2023-06-10T12:32:36;27.10;1.00
336;DHT22;156;48.738;9.228;2023-06-10T12:35:19;27.20;1.00
336;DHT22;156;48.738;9.228;2023-06-10T12:38:18;27.20;1.00
336;DHT22;156;48.738;9.228;2023-06-10T12:41:06;27.40;1.00
336;DHT22;156;48.738;9.228;2023-06-10T12:43:51;27.20;1.00
336;DHT22;156;48.738;9.228;2023-06-10T12:46:36;27.60;1.00
336;DHT22;156;48.738;9.228;2023-06-10T12:49:21;28.00;1.00
336;DHT22;156;48.738;9.228;2023-06-10T12:52:00;28.40;1.00
336;DHT22;156;48.738;9.228;2023-06-10T12:54:27;28.50;1.00
336;DHT22;156;48.738;9.228;2023-06-10T12:56:55;28.70;1.00
336;DHT22;156;48.738;9.228;2023-06-10T12:59:28;29.10;1.00
336;DHT22;156;48.738;9.228;2023-06-10T13:01:57;28.90;1.00
336;DHT22;156;48.738;9.228;2023-06-10T13:04:24;28.50;1.00
336;DHT22;156;48.738;9.228;2023-06-10T13:06:58;28.40;1.00
336;DHT22;156;48.738;9.228;2023-06-10T13:09:25;28.30;1.00
336;DHT22;156;48.738;9.228;2023-06-10T13:11:55;28.60;1.00
336;DHT22;156;48.738;9.228;2023-06-10T13:14:42;29.00;1.00
336;DHT22;156;48.738;9.228;2023-06-10T13:17:17;29.10;1.00
336;DHT22;156;48.738;9.228;2023-06-10T13:19:53;28.40;1.00
336;DHT22;156;48.738;9.228;2023-06-10T13:22:23;27.00;1.00
336;DHT22;156;48.738;9.228;2023-06-10T13:25:05;27.80;1.00
336;DHT22;156;48.738;9.228;2023-06-10T13:27:33;27.40;1.00
336;DHT22;156;48.738;9.228;2023-06-10T13:30:09;27.70;1.00
336;DHT22;156;48.738;9.228;2023-06-10T13:32:41;27.70;1.00
336;DHT22;156;48.738;9.228;2023-06-10T13:35:20;29.20;1.00
336;DHT22;156;48.738;9.228;2023-06-10T13:40:54;29.10;1.00
336;DHT22;156;48.738;9.228;2023-06-10T13:43:38;27.20;1.00
336;DHT22;156;48.738;9.228;2023-06-10T13:46:17;28.60;1.00
336;DHT22;156;48.738;9.228;2023-06-10T13:48:48;29.00;1.00
336;DHT22;156;48.738;9.228;2023-06-10T13:51:16;29.20;1.00
336;DHT22;156;48.738;9.228;2023-06-10T13:54:03;29.20;1.00
336;DHT22;156;48.738;9.228;2023-06-10T13:56:35;29.50;1.00
336;DHT22;156;48.738;9.228;2023-06-10T13:59:06;29.40;1.00
336;DHT22;156;48.738;9.228;2023-06-10T14:01:36;29.40;1.00
336;DHT22;156;48.738;9.228;2023-06-10T14:04:07;29.60;1.00
336;DHT22;156;48.738;9.228;2023-06-10T14:06:37;29.90;1.00
336;DHT22;156;48.738;9.228;2023-06-10T14:09:15;29.70;1.00
336;DHT22;156;48.738;9.228;2023-06-10T14:11:48;30.50;1.00
336;DHT22;156;48.738;9.228;2023-06-10T14:14:44;30.90;1.00
336;DHT22;156;48.738;9.228;2023-06-10T14:17:30;29.80;1.00
336;DHT22;156;48.738;9.228;2023-06-10T14:20:04;29.60;1.00
336;DHT22;156;48.738;9.228;2023-06-10T14:25:33;28.70;1.00
336;DHT22;156;48.738;9.228;2023-06-10T14:28:08;29.00;1.00
336;DHT22;156;48.738;9.228;2023-06-10T14:30:56;27.90;1.00
336;DHT22;156;48.738;9.228;2023-06-10T14:33:59;27.80;1.00
336;DHT22;156;48.738;9.228;2023-06-10T14:36:36;28.60;1.00
336;DHT22;156;48.738;9.228;2023-06-10T14:39:12;27.20;1.00
336;DHT22;156;48.738;9.228;2023-06-10T14:41:45;27.60;1.00
336;DHT22;156;48.738;9.228;2023-06-10T14:44:13;27.90;1.00
336;DHT22;156;48.738;9.228;2023-06-10T14:46:42;28.50;1.00
336;DHT22;156;48.738;9.228;2023-06-10T14:49:13;28.30;1.00
336;DHT22;156;48.738;9.228;2023-06-10T14:51:40;27.90;1.00
336;DHT22;156;48.738;9.228;2023-06-10T14:54:09;28.10;1.00
336;DHT22;156;48.738;9.228;2023-06-10T14:57:02;28.00;1.00
336;DHT22;156;48.738;9.228;2023-06-10T14:59:29;27.90;1.00
336;DHT22;156;48.738;9.228;2023-06-10T15:02:00;27.50;1.00
336;DHT22;156;48.738;9.228;2023-06-10T15:04:35;27.50;1.00
336;DHT22;156;48.738;9.228;2023-06-10T15:07:12;29.30;1.00
336;DHT22;156;48.738;9.228;2023-06-10T15:09:45;27.20;1.00
336;DHT22;156;48.738;9.228;2023-06-10T15:12:24;27.50;1.00
336;DHT22;156;48.738;9.228;2023-06-10T15:15:00;27.80;1.00
336;DHT22;156;48.738;9.228;2023-06-10T15:17:41;27.10;1.00
336;DHT22;156;48.738;9.228;2023-06-10T15:20:31;27.70;1.00
336;DHT22;156;48.738;9.228;2023-06-10T15:23:14;28.70;1.00
336;DHT22;156;48.738;9.228;2023-06-10T15:26:06;30.50;1.00
336;DHT22;156;48.738;9.228;2023-06-10T15:28:37;31.30;1.00
336;DHT22;156;48.738;9.228;2023-06-10T15:31:04;30.70;1.00
336;DHT22;156;48.738;9.228;2023-06-10T15:33:33;30.30;1.00
336;DHT22;156;48.738;9.228;2023-06-10T15:36:24;30.10;1.00
336;DHT22;156;48.738;9.228;2023-06-10T15:39:21;30.00;1.00
336;DHT22;156;48.738;9.228;2023-06-10T15:42:16;29.60;1.00
336;DHT22;156;48.738;9.228;2023-06-10T15:44:51;30.30;1.00
336;DHT22;156;48.738;9.228;2023-06-10T15:47:43;30.20;1.00
336;DHT22;156;48.738;9.228;2023-06-10T15:50:26;30.20;1.00
336;DHT22;156;48.738;9.228;2023-06-10T15:53:16;28.40;1.00
336;DHT22;156;48.738;9.228;2023-06-10T15:56:01;29.60;1.00
336;DHT22;156;48.738;9.228;2023-06-10T15:58:44;30.10;1.00
336;DHT22;156;48.738;9.228;2023-06-10T16:01:44;30.70;1.00
336;DHT22;156;48.738;9.228;2023-06-10T16:04:11;31.30;1.00
336;DHT22;156;48.738;9.228;2023-06-10T16:06:38;31.20;1.00
336;DHT22;156;48.738;9.228;2023-06-10T16:09:17;31.70;1.00
336;DHT22;156;48.738;9.228;2023-06-10T16:11:51;32.60;1.00
336;DHT22;156;48.738;9.228;2023-06-10T16:14:50;32.90;1.00
336;DHT22;156;48.738;9.228;2023-06-10T16:20:50;34.00;1.00
336;DHT22;156;48.738;9.228;2023-06-10T16:23:36;33.80;1.00
336;DHT22;156;48.738;9.228;2023-06-10T16:26:14;33.90;1.00
336;DHT22;156;48.738;9.228;2023-06-10T16:28:47;33.80;1.00
336;DHT22;156;48.738;9.228;2023-06-10T16:31:22;33.10;1.00
336;DHT22;156;48.738;9.228;2023-06-10T16:34:09;33.60;1.00
336;DHT22;156;48.738;9.228;2023-06-10T16:36:45;33.90;1.00
336;DHT22;156;48.738;9.228;2023-06-10T16:39:26;33.40;1.00
336;DHT22;156;48.738;9.228;2023-06-10T16:45:01;33.20;1.00
336;DHT22;156;48.738;9.228;2023-06-10T16:47:32;32.50;1.00
336;DHT22;156;48.738;9.228;2023-06-10T16:50:05;32.40;1.00
336;DHT22;156;48.738;9.228;2023-06-10T16:52:41;31.80;1.00
336;DHT22;156;48.738;9.228;2023-06-10T16:55:10;32.40;1.00
336;DHT22;156;48.738;9.228;2023-06-10T16:57:44;32.90;1.00
336;DHT22;156;48.738;9.228;2023-06-10T17:00:27;33.60;1.00
336;DHT22;156;48.738;9.228;2023-06-10T17:02:57;34.60;1.00
336;DHT22;156;48.738;9.228;2023-06-10T17:05:51;34.20;1.00
336;DHT22;156;48.738;9.228;2023-06-10T17:08:52;35.00;1.00
336;DHT22;156;48.738;9.228;2023-06-10T17:11:35;35.20;1.00
336;DHT22;156;48.738;9.228;2023-06-10T17:14:18;35.70;1.00
336;DHT22;156;48.738;9.228;2023-06-10T17:17:00;35.80;1.00
336;DHT22;156;48.738;9.228;2023-06-10T17:19:34;36.00;1.00
336;DHT22;156;48.738;9.228;2023-06-10T17:22:03;34.60;1.00
336;DHT22;156;48.738;9.228;2023-06-10T17:24:30;34.20;1.00
336;DHT22;156;48.738;9.228;2023-06-10T17:27:00;33.30;1.00
336;DHT22;156;48.738;9.228;2023-06-10T17:29:33;31.40;1.00
336;DHT22;156;48.738;9.228;2023-06-10T17:32:04;31.90;1.00
336;DHT22;156;48.738;9.228;2023-06-10T17:34:31;31.10;1.00
336;DHT22;156;48.738;9.228;2023-06-10T17:36:58;30.10;1.00
336;DHT22;156;48.738;9.228;2023-06-10T17:39:28;29.60;1.00
336;DHT22;156;48.738;9.228;2023-06-10T17:41:58;28.80;1.00
336;DHT22;156;48.738;9.228;2023-06-10T17:44:25;28.30;1.00
336;DHT22;156;48.738;9.228;2023-06-10T17:46:53;28.20;1.00
336;DHT22;156;48.738;9.228;2023-06-10T17:49:22;28.10;1.00
336;DHT22;156;48.738;9.228;2023-06-10T17:51:49;27.80;1.00
336;DHT22;156;48.738;9.228;2023-06-10T17:54:16;27.60;1.00
336;DHT22;156;48.738;9.228;2023-06-10T17:56:44;27.40;1.00
336;DHT22;156;48.738;9.228;2023-06-10T17:59:11;27.30;1.00
336;DHT22;156;48.738;9.228;2023-06-10T18:01:38;27.20;1.00
336;DHT22;156;48.738;9.228;2023-06-10T18:04:06;26.80;1.00
336;DHT22;156;48.738;9.228;2023-06-10T18:06:34;26.60;1.00
336;DHT22;156;48.738;9.228;2023-06-10T18:09:02;26.40;1.00